sensor_id;sensor_type;location;lat;lon;timestamp;P1;durP1;ratioP1;P2;durP2;ratioP2
75916;SDS011;64595;50.148;14.334;2023-04-15T00:01:01;12.13;;;7.78;;
75916;SDS011;64595;50.148;14.334;2023-04-15T00:03:26;10.30;;;6.50;;
75916;SDS011;64595;50.148;14.334;2023-04-15T00:05:52;8.50;;;5.80;;
75916;SDS011;64595;50.148;14.334;2023-04-15T00:08:19;8.85;;;5.00;;
75916;SDS011;64595;50.148;14.334;2023-04-15T00:10:44;10.70;;;6.72;;
75916;SDS011;64595;50.148;14.334;2023-04-15T00:13:10;15.60;;;8.00;;
75916;SDS011;64595;50.148;14.334;2023-04-15T00:15:35;13.98;;;7.88;;
75916;SDS011;64595;50.148;14.334;2023-04-15T00:18:01;14.63;;;8.75;;
75916;SDS011;64595;50.148;14.334;2023-04-15T00:20:26;9.52;;;6.25;;
75916;SDS011;64595;50.148;14.334;2023-04-15T00:22:52;16.65;;;8.15;;
75916;SDS011;64595;50.148;14.334;2023-04-15T00:25:18;17.02;;;10.15;;
75916;SDS011;64595;50.148;14.334;2023-04-15T00:27:44;23.92;;;14.43;;
75916;SDS011;64595;50.148;14.334;2023-04-15T00:30:10;10.90;;;7.47;;
75916;SDS011;64595;50.148;14.334;2023-04-15T00:32:35;10.07;;;6.32;;
75916;SDS011;64595;50.148;14.334;2023-04-15T00:35:01;26.80;;;13.73;;
75916;SDS011;64595;50.148;14.334;2023-04-15T00:37:26;22.00;;;12.02;;
75916;SDS011;64595;50.148;14.334;2023-04-15T00:39:52;18.30;;;9.23;;
75916;SDS011;64595;50.148;14.334;2023-04-15T00:42:19;10.48;;;7.38;;
75916;SDS011;64595;50.148;14.334;2023-04-15T00:44:44;6.88;;;4.40;;
75916;SDS011;64595;50.148;14.334;2023-04-15T00:47:10;16.02;;;9.05;;
75916;SDS011;64595;50.148;14.334;2023-04-15T00:49:36;11.77;;;7.30;;
75916;SDS011;64595;50.148;14.334;2023-04-15T00:52:01;6.22;;;5.05;;
75916;SDS011;64595;50.148;14.334;2023-04-15T00:54:27;10.65;;;7.00;;
75916;SDS011;64595;50.148;14.334;2023-04-15T00:56:52;17.42;;;9.85;;
75916;SDS011;64595;50.148;14.334;2023-04-15T00:59:19;11.07;;;7.13;;
75916;SDS011;64595;50.148;14.334;2023-04-15T01:01:45;11.68;;;8.73;;
75916;SDS011;64595;50.148;14.334;2023-04-15T01:04:11;12.32;;;7.70;;
75916;SDS011;64595;50.148;14.334;2023-04-15T01:06:36;14.55;;;8.68;;
75916;SDS011;64595;50.148;14.334;2023-04-15T01:09:02;8.77;;;6.85;;
75916;SDS011;64595;50.148;14.334;2023-04-15T01:11:27;11.07;;;8.00;;
75916;SDS011;64595;50.148;14.334;2023-04-15T01:13:53;21.15;;;12.20;;
75916;SDS011;64595;50.148;14.334;2023-04-15T01:16:21;12.00;;;7.95;;
75916;SDS011;64595;50.148;14.334;2023-04-15T01:18:46;14.13;;;9.45;;
75916;SDS011;64595;50.148;14.334;2023-04-15T01:21:12;13.95;;;8.80;;
75916;SDS011;64595;50.148;14.334;2023-04-15T01:23:38;8.43;;;6.15;;
75916;SDS011;64595;50.148;14.334;2023-04-15T01:26:05;11.82;;;8.10;;
75916;SDS011;64595;50.148;14.334;2023-04-15T01:28:31;14.60;;;10.00;;
75916;SDS011;64595;50.148;14.334;2023-04-15T01:31:06;13.68;;;8.40;;
75916;SDS011;64595;50.148;14.334;2023-04-15T01:33:32;15.82;;;9.85;;
75916;SDS011;64595;50.148;14.334;2023-04-15T01:35:57;13.25;;;9.48;;
75916;SDS011;64595;50.148;14.334;2023-04-15T01:38:24;10.98;;;7.47;;
75916;SDS011;64595;50.148;14.334;2023-04-15T01:40:50;9.80;;;6.88;;
75916;SDS011;64595;50.148;14.334;2023-04-15T01:43:17;8.95;;;6.70;;
75916;SDS011;64595;50.148;14.334;2023-04-15T01:45:51;15.55;;;10.25;;
75916;SDS011;64595;50.148;14.334;2023-04-15T01:48:17;8.70;;;6.82;;
75916;SDS011;64595;50.148;14.334;2023-04-15T01:50:42;10.30;;;7.50;;
75916;SDS011;64595;50.148;14.334;2023-04-15T01:53:08;5.32;;;4.15;;
75916;SDS011;64595;50.148;14.334;2023-04-15T01:55:41;5.95;;;4.47;;
75916;SDS011;64595;50.148;14.334;2023-04-15T01:58:06;4.80;;;3.53;;
75916;SDS011;64595;50.148;14.334;2023-04-15T02:00:33;6.20;;;4.05;;
75916;SDS011;64595;50.148;14.334;2023-04-15T02:02:59;5.22;;;4.07;;
75916;SDS011;64595;50.148;14.334;2023-04-15T02:05:24;6.13;;;3.53;;
75916;SDS011;64595;50.148;14.334;2023-04-15T02:07:49;4.53;;;3.88;;
75916;SDS011;64595;50.148;14.334;2023-04-15T02:10:15;4.22;;;3.30;;
75916;SDS011;64595;50.148;14.334;2023-04-15T02:12:41;3.92;;;3.17;;
75916;SDS011;64595;50.148;14.334;2023-04-15T02:15:07;3.30;;;3.00;;
75916;SDS011;64595;50.148;14.334;2023-04-15T02:17:34;4.65;;;3.80;;
75916;SDS011;64595;50.148;14.334;2023-04-15T02:20:00;3.72;;;3.30;;
75916;SDS011;64595;50.148;14.334;2023-04-15T02:22:26;3.78;;;3.10;;
75916;SDS011;64595;50.148;14.334;2023-04-15T02:24:51;4.15;;;3.30;;
75916;SDS011;64595;50.148;14.334;2023-04-15T02:27:17;4.43;;;3.40;;
75916;SDS011;64595;50.148;14.334;2023-04-15T02:29:42;3.60;;;2.85;;
75916;SDS011;64595;50.148;14.334;2023-04-15T02:32:08;4.15;;;3.38;;
75916;SDS011;64595;50.148;14.334;2023-04-15T02:34:35;4.30;;;3.38;;
75916;SDS011;64595;50.148;14.334;2023-04-15T02:37:00;4.60;;;3.60;;
75916;SDS011;64595;50.148;14.334;2023-04-15T02:39:26;4.47;;;3.30;;
75916;SDS011;64595;50.148;14.334;2023-04-15T02:41:51;4.75;;;3.30;;
75916;SDS011;64595;50.148;14.334;2023-04-15T02:44:17;3.80;;;3.13;;
75916;SDS011;64595;50.148;14.334;2023-04-15T02:46:42;3.83;;;3.05;;
75916;SDS011;64595;50.148;14.334;2023-04-15T02:49:08;4.25;;;2.72;;
75916;SDS011;64595;50.148;14.334;2023-04-15T02:51:34;3.53;;;2.90;;
75916;SDS011;64595;50.148;14.334;2023-04-15T02:54:00;3.75;;;3.00;;
75916;SDS011;64595;50.148;14.334;2023-04-15T02:56:25;4.47;;;3.40;;
75916;SDS011;64595;50.148;14.334;2023-04-15T02:58:51;4.25;;;3.60;;
75916;SDS011;64595;50.148;14.334;2023-04-15T03:01:16;4.68;;;3.60;;
75916;SDS011;64595;50.148;14.334;2023-04-15T03:03:42;5.13;;;4.63;;
75916;SDS011;64595;50.148;14.334;2023-04-15T03:06:07;4.50;;;3.33;;
75916;SDS011;64595;50.148;14.334;2023-04-15T03:08:34;3.75;;;3.13;;
75916;SDS011;64595;50.148;14.334;2023-04-15T03:10:59;6.45;;;3.90;;
75916;SDS011;64595;50.148;14.334;2023-04-15T03:13:25;5.45;;;3.63;;
75916;SDS011;64595;50.148;14.334;2023-04-15T03:15:50;4.90;;;3.33;;
75916;SDS011;64595;50.148;14.334;2023-04-15T03:18:16;5.03;;;3.40;;
75916;SDS011;64595;50.148;14.334;2023-04-15T03:20:41;5.40;;;3.50;;
75916;SDS011;64595;50.148;14.334;2023-04-15T03:23:07;4.35;;;3.03;;
75916;SDS011;64595;50.148;14.334;2023-04-15T03:25:34;4.18;;;3.03;;
75916;SDS011;64595;50.148;14.334;2023-04-15T03:27:59;4.85;;;2.97;;
75916;SDS011;64595;50.148;14.334;2023-04-15T03:30:24;4.45;;;3.60;;
75916;SDS011;64595;50.148;14.334;2023-04-15T03:32:50;3.75;;;2.83;;
75916;SDS011;64595;50.148;14.334;2023-04-15T03:35:15;4.35;;;2.72;;
75916;SDS011;64595;50.148;14.334;2023-04-15T03:37:41;3.45;;;2.50;;
75916;SDS011;64595;50.148;14.334;2023-04-15T03:40:07;3.55;;;2.95;;
75916;SDS011;64595;50.148;14.334;2023-04-15T03:42:34;4.80;;;3.17;;
75916;SDS011;64595;50.148;14.334;2023-04-15T03:45:00;4.68;;;3.15;;
75916;SDS011;64595;50.148;14.334;2023-04-15T03:47:25;4.50;;;3.63;;
75916;SDS011;64595;50.148;14.334;2023-04-15T03:49:51;5.45;;;3.70;;
75916;SDS011;64595;50.148;14.334;2023-04-15T03:52:16;6.60;;;4.50;;
75916;SDS011;64595;50.148;14.334;2023-04-15T03:54:42;5.10;;;4.45;;
75916;SDS011;64595;50.148;14.334;2023-04-15T03:57:07;6.10;;;4.05;;
75916;SDS011;64595;50.148;14.334;2023-04-15T03:59:34;5.95;;;5.18;;
75916;SDS011;64595;50.148;14.334;2023-04-15T04:01:59;6.85;;;4.90;;
75916;SDS011;64595;50.148;14.334;2023-04-15T04:04:25;4.45;;;3.03;;
75916;SDS011;64595;50.148;14.334;2023-04-15T04:06:50;6.90;;;5.40;;
75916;SDS011;64595;50.148;14.334;2023-04-15T04:09:16;8.80;;;6.20;;
75916;SDS011;64595;50.148;14.334;2023-04-15T04:11:41;7.88;;;5.60;;
75916;SDS011;64595;50.148;14.334;2023-04-15T04:14:07;9.23;;;6.05;;
75916;SDS011;64595;50.148;14.334;2023-04-15T04:16:33;9.90;;;6.90;;
75916;SDS011;64595;50.148;14.334;2023-04-15T04:18:59;10.80;;;6.93;;
75916;SDS011;64595;50.148;14.334;2023-04-15T04:21:24;10.00;;;7.05;;
75916;SDS011;64595;50.148;14.334;2023-04-15T04:23:50;11.52;;;7.78;;
75916;SDS011;64595;50.148;14.334;2023-04-15T04:26:15;10.32;;;7.25;;
75916;SDS011;64595;50.148;14.334;2023-04-15T04:28:41;10.55;;;7.00;;
75916;SDS011;64595;50.148;14.334;2023-04-15T04:31:06;11.25;;;6.55;;
75916;SDS011;64595;50.148;14.334;2023-04-15T04:33:33;9.82;;;6.43;;
75916;SDS011;64595;50.148;14.334;2023-04-15T04:35:59;9.73;;;6.20;;
75916;SDS011;64595;50.148;14.334;2023-04-15T04:38:24;9.82;;;6.53;;
75916;SDS011;64595;50.148;14.334;2023-04-15T04:40:50;9.38;;;5.88;;
75916;SDS011;64595;50.148;14.334;2023-04-15T04:43:15;9.75;;;6.00;;
75916;SDS011;64595;50.148;14.334;2023-04-15T04:45:41;7.78;;;5.32;;
75916;SDS011;64595;50.148;14.334;2023-04-15T04:48:06;8.88;;;5.68;;
75916;SDS011;64595;50.148;14.334;2023-04-15T04:53:00;9.68;;;6.25;;
75916;SDS011;64595;50.148;14.334;2023-04-15T04:55:25;10.20;;;6.55;;
75916;SDS011;64595;50.148;14.334;2023-04-15T04:57:51;11.00;;;6.60;;
75916;SDS011;64595;50.148;14.334;2023-04-15T05:00:17;10.68;;;6.75;;
75916;SDS011;64595;50.148;14.334;2023-04-15T05:02:42;9.18;;;5.85;;
75916;SDS011;64595;50.148;14.334;2023-04-15T05:05:08;8.68;;;6.25;;
75916;SDS011;64595;50.148;14.334;2023-04-15T05:07:35;8.75;;;6.25;;
75916;SDS011;64595;50.148;14.334;2023-04-15T05:10:01;8.40;;;5.97;;
75916;SDS011;64595;50.148;14.334;2023-04-15T05:12:26;10.50;;;6.07;;
75916;SDS011;64595;50.148;14.334;2023-04-15T05:14:52;9.80;;;6.15;;
75916;SDS011;64595;50.148;14.334;2023-04-15T05:17:17;8.93;;;6.38;;
75916;SDS011;64595;50.148;14.334;2023-04-15T05:19:43;9.07;;;5.55;;
75916;SDS011;64595;50.148;14.334;2023-04-15T05:22:08;8.00;;;5.25;;
75916;SDS011;64595;50.148;14.334;2023-04-15T05:24:35;7.82;;;5.63;;
75916;SDS011;64595;50.148;14.334;2023-04-15T05:27:00;9.05;;;6.20;;
75916;SDS011;64595;50.148;14.334;2023-04-15T05:29:27;8.52;;;6.10;;
75916;SDS011;64595;50.148;14.334;2023-04-15T05:31:52;8.75;;;5.57;;
75916;SDS011;64595;50.148;14.334;2023-04-15T05:34:18;7.03;;;5.00;;
75916;SDS011;64595;50.148;14.334;2023-04-15T05:36:43;7.28;;;5.28;;
75916;SDS011;64595;50.148;14.334;2023-04-15T05:39:09;7.80;;;5.40;;
75916;SDS011;64595;50.148;14.334;2023-04-15T05:41:35;9.07;;;5.85;;
75916;SDS011;64595;50.148;14.334;2023-04-15T05:44:01;8.30;;;5.63;;
75916;SDS011;64595;50.148;14.334;2023-04-15T05:46:26;10.63;;;6.80;;
75916;SDS011;64595;50.148;14.334;2023-04-15T05:48:52;8.32;;;5.72;;
75916;SDS011;64595;50.148;14.334;2023-04-15T05:51:17;7.70;;;5.50;;
75916;SDS011;64595;50.148;14.334;2023-04-15T05:53:43;7.82;;;5.40;;
75916;SDS011;64595;50.148;14.334;2023-04-15T05:56:08;10.60;;;6.43;;
75916;SDS011;64595;50.148;14.334;2023-04-15T05:58:35;8.70;;;6.18;;
75916;SDS011;64595;50.148;14.334;2023-04-15T06:01:01;7.30;;;4.88;;
75916;SDS011;64595;50.148;14.334;2023-04-15T06:03:26;7.20;;;5.13;;
75916;SDS011;64595;50.148;14.334;2023-04-15T06:05:52;6.43;;;4.55;;
75916;SDS011;64595;50.148;14.334;2023-04-15T06:08:17;6.65;;;4.75;;
75916;SDS011;64595;50.148;14.334;2023-04-15T06:10:43;5.50;;;4.00;;
75916;SDS011;64595;50.148;14.334;2023-04-15T06:13:08;6.22;;;4.68;;
75916;SDS011;64595;50.148;14.334;2023-04-15T06:15:35;6.40;;;4.38;;
75916;SDS011;64595;50.148;14.334;2023-04-15T06:18:01;6.20;;;4.63;;
75916;SDS011;64595;50.148;14.334;2023-04-15T06:20:26;5.07;;;4.10;;
75916;SDS011;64595;50.148;14.334;2023-04-15T06:22:52;5.13;;;3.60;;
75916;SDS011;64595;50.148;14.334;2023-04-15T06:25:18;4.63;;;3.80;;
75916;SDS011;64595;50.148;14.334;2023-04-15T06:27:44;5.03;;;3.80;;
75916;SDS011;64595;50.148;14.334;2023-04-15T06:30:09;4.20;;;3.25;;
75916;SDS011;64595;50.148;14.334;2023-04-15T06:32:37;4.40;;;3.50;;
75916;SDS011;64595;50.148;14.334;2023-04-15T06:35:02;4.88;;;3.40;;
75916;SDS011;64595;50.148;14.334;2023-04-15T06:37:28;4.95;;;3.92;;
75916;SDS011;64595;50.148;14.334;2023-04-15T06:39:54;3.97;;;3.05;;
75916;SDS011;64595;50.148;14.334;2023-04-15T06:42:19;4.47;;;3.72;;
75916;SDS011;64595;50.148;14.334;2023-04-15T06:44:44;4.82;;;3.20;;
75916;SDS011;64595;50.148;14.334;2023-04-15T06:47:10;4.40;;;3.60;;
75916;SDS011;64595;50.148;14.334;2023-04-15T06:49:37;4.82;;;3.90;;
75916;SDS011;64595;50.148;14.334;2023-04-15T06:52:02;4.50;;;3.70;;
75916;SDS011;64595;50.148;14.334;2023-04-15T06:54:28;4.45;;;3.42;;
75916;SDS011;64595;50.148;14.334;2023-04-15T06:56:54;6.40;;;4.70;;
75916;SDS011;64595;50.148;14.334;2023-04-15T06:59:19;4.95;;;3.75;;
75916;SDS011;64595;50.148;14.334;2023-04-15T07:01:44;4.97;;;4.18;;
75916;SDS011;64595;50.148;14.334;2023-04-15T07:04:10;4.57;;;3.35;;
75916;SDS011;64595;50.148;14.334;2023-04-15T07:06:37;4.60;;;3.47;;
75916;SDS011;64595;50.148;14.334;2023-04-15T07:09:03;5.60;;;4.45;;
75916;SDS011;64595;50.148;14.334;2023-04-15T07:11:28;5.15;;;3.67;;
75916;SDS011;64595;50.148;14.334;2023-04-15T07:13:54;5.90;;;4.10;;
75916;SDS011;64595;50.148;14.334;2023-04-15T07:16:19;6.40;;;4.55;;
75916;SDS011;64595;50.148;14.334;2023-04-15T07:18:45;4.72;;;3.25;;
75916;SDS011;64595;50.148;14.334;2023-04-15T07:21:10;3.58;;;2.80;;
75916;SDS011;64595;50.148;14.334;2023-04-15T07:23:37;3.55;;;2.53;;
75916;SDS011;64595;50.148;14.334;2023-04-15T07:26:02;2.78;;;2.25;;
75916;SDS011;64595;50.148;14.334;2023-04-15T07:28:28;2.60;;;2.00;;
75916;SDS011;64595;50.148;14.334;2023-04-15T07:30:54;2.80;;;1.98;;
75916;SDS011;64595;50.148;14.334;2023-04-15T07:33:19;2.80;;;1.90;;
75916;SDS011;64595;50.148;14.334;2023-04-15T07:35:45;2.63;;;1.70;;
75916;SDS011;64595;50.148;14.334;2023-04-15T07:38:10;2.25;;;1.67;;
75916;SDS011;64595;50.148;14.334;2023-04-15T07:40:37;1.63;;;1.30;;
75916;SDS011;64595;50.148;14.334;2023-04-15T07:43:02;2.40;;;1.70;;
75916;SDS011;64595;50.148;14.334;2023-04-15T07:45:28;2.47;;;1.70;;
75916;SDS011;64595;50.148;14.334;2023-04-15T07:47:53;3.33;;;2.40;;
75916;SDS011;64595;50.148;14.334;2023-04-15T07:50:19;2.30;;;1.75;;
75916;SDS011;64595;50.148;14.334;2023-04-15T07:52:44;2.67;;;1.80;;
75916;SDS011;64595;50.148;14.334;2023-04-15T07:55:10;2.47;;;1.55;;
75916;SDS011;64595;50.148;14.334;2023-04-15T07:57:37;2.25;;;1.63;;
75916;SDS011;64595;50.148;14.334;2023-04-15T08:00:03;2.50;;;1.73;;
75916;SDS011;64595;50.148;14.334;2023-04-15T08:02:29;2.78;;;1.40;;
75916;SDS011;64595;50.148;14.334;2023-04-15T08:04:54;3.13;;;1.45;;
75916;SDS011;64595;50.148;14.334;2023-04-15T08:07:20;2.03;;;1.60;;
75916;SDS011;64595;50.148;14.334;2023-04-15T08:09:45;2.67;;;1.60;;
75916;SDS011;64595;50.148;14.334;2023-04-15T08:12:10;2.97;;;1.60;;
75916;SDS011;64595;50.148;14.334;2023-04-15T08:14:37;2.25;;;1.50;;
75916;SDS011;64595;50.148;14.334;2023-04-15T08:17:03;2.85;;;1.70;;
75916;SDS011;64595;50.148;14.334;2023-04-15T08:19:29;2.60;;;1.70;;
75916;SDS011;64595;50.148;14.334;2023-04-15T08:21:54;4.05;;;1.98;;
75916;SDS011;64595;50.148;14.334;2023-04-15T08:24:20;2.47;;;1.60;;
75916;SDS011;64595;50.148;14.334;2023-04-15T08:26:48;2.70;;;1.70;;
75916;SDS011;64595;50.148;14.334;2023-04-15T08:29:14;2.53;;;1.90;;
75916;SDS011;64595;50.148;14.334;2023-04-15T08:31:41;3.65;;;2.13;;
75916;SDS011;64595;50.148;14.334;2023-04-15T08:34:06;3.20;;;1.80;;
75916;SDS011;64595;50.148;14.334;2023-04-15T08:36:32;2.30;;;1.60;;
75916;SDS011;64595;50.148;14.334;2023-04-15T08:38:57;2.10;;;1.60;;
75916;SDS011;64595;50.148;14.334;2023-04-15T08:41:23;1.83;;;1.50;;
75916;SDS011;64595;50.148;14.334;2023-04-15T08:43:52;2.85;;;1.77;;
75916;SDS011;64595;50.148;14.334;2023-04-15T08:46:20;2.30;;;1.52;;
75916;SDS011;64595;50.148;14.334;2023-04-15T08:48:48;3.28;;;1.70;;
75916;SDS011;64595;50.148;14.334;2023-04-15T08:51:13;4.00;;;1.67;;
75916;SDS011;64595;50.148;14.334;2023-04-15T08:53:39;3.38;;;1.60;;
75916;SDS011;64595;50.148;14.334;2023-04-15T08:56:06;3.22;;;1.85;;
75916;SDS011;64595;50.148;14.334;2023-04-15T08:58:32;2.42;;;1.80;;
75916;SDS011;64595;50.148;14.334;2023-04-15T09:00:58;2.20;;;1.67;;
75916;SDS011;64595;50.148;14.334;2023-04-15T09:03:23;2.72;;;1.80;;
75916;SDS011;64595;50.148;14.334;2023-04-15T09:05:51;2.40;;;1.80;;
75916;SDS011;64595;50.148;14.334;2023-04-15T09:08:17;2.50;;;2.00;;
75916;SDS011;64595;50.148;14.334;2023-04-15T09:10:42;2.33;;;1.80;;
75916;SDS011;64595;50.148;14.334;2023-04-15T09:13:08;2.78;;;1.70;;
75916;SDS011;64595;50.148;14.334;2023-04-15T09:15:33;2.28;;;1.80;;
75916;SDS011;64595;50.148;14.334;2023-04-15T09:18:01;4.72;;;1.67;;
75916;SDS011;64595;50.148;14.334;2023-04-15T09:20:27;3.60;;;1.80;;
75916;SDS011;64595;50.148;14.334;2023-04-15T09:22:53;2.60;;;1.83;;
75916;SDS011;64595;50.148;14.334;2023-04-15T09:25:26;2.63;;;2.00;;
75916;SDS011;64595;50.148;14.334;2023-04-15T09:27:53;3.33;;;2.45;;
75916;SDS011;64595;50.148;14.334;2023-04-15T09:30:19;2.95;;;2.30;;
75916;SDS011;64595;50.148;14.334;2023-04-15T09:32:48;2.95;;;2.30;;
75916;SDS011;64595;50.148;14.334;2023-04-15T09:35:14;2.97;;;2.20;;
75916;SDS011;64595;50.148;14.334;2023-04-15T09:37:40;4.03;;;2.95;;
75916;SDS011;64595;50.148;14.334;2023-04-15T09:40:07;2.95;;;2.17;;
75916;SDS011;64595;50.148;14.334;2023-04-15T09:42:33;2.83;;;2.53;;
75916;SDS011;64595;50.148;14.334;2023-04-15T09:45:07;2.80;;;2.50;;
75916;SDS011;64595;50.148;14.334;2023-04-15T09:47:32;2.75;;;2.20;;
75916;SDS011;64595;50.148;14.334;2023-04-15T09:49:58;2.90;;;2.53;;
75916;SDS011;64595;50.148;14.334;2023-04-15T09:52:24;2.90;;;2.50;;
75916;SDS011;64595;50.148;14.334;2023-04-15T09:54:51;3.28;;;2.42;;
75916;SDS011;64595;50.148;14.334;2023-04-15T09:57:19;2.72;;;2.28;;
75916;SDS011;64595;50.148;14.334;2023-04-15T09:59:44;3.53;;;2.38;;
75916;SDS011;64595;50.148;14.334;2023-04-15T10:02:10;3.28;;;2.33;;
75916;SDS011;64595;50.148;14.334;2023-04-15T10:04:38;3.80;;;2.95;;
75916;SDS011;64595;50.148;14.334;2023-04-15T10:07:04;4.30;;;2.50;;
75916;SDS011;64595;50.148;14.334;2023-04-15T10:09:30;3.13;;;2.83;;
75916;SDS011;64595;50.148;14.334;2023-04-15T10:11:55;3.17;;;2.50;;
75916;SDS011;64595;50.148;14.334;2023-04-15T10:14:22;3.30;;;2.70;;
75916;SDS011;64595;50.148;14.334;2023-04-15T10:16:49;4.25;;;2.35;;
75916;SDS011;64595;50.148;14.334;2023-04-15T10:19:15;2.88;;;2.20;;
75916;SDS011;64595;50.148;14.334;2023-04-15T10:21:43;3.05;;;2.47;;
75916;SDS011;64595;50.148;14.334;2023-04-15T10:24:09;3.30;;;2.45;;
75916;SDS011;64595;50.148;14.334;2023-04-15T10:26:34;3.03;;;2.45;;
75916;SDS011;64595;50.148;14.334;2023-04-15T10:29:00;3.00;;;2.65;;
75916;SDS011;64595;50.148;14.334;2023-04-15T10:31:27;4.85;;;2.88;;
75916;SDS011;64595;50.148;14.334;2023-04-15T10:33:53;4.32;;;2.65;;
75916;SDS011;64595;50.148;14.334;2023-04-15T10:36:19;4.57;;;3.08;;
75916;SDS011;64595;50.148;14.334;2023-04-15T10:38:45;3.75;;;3.08;;
75916;SDS011;64595;50.148;14.334;2023-04-15T10:41:14;3.50;;;3.03;;
75916;SDS011;64595;50.148;14.334;2023-04-15T10:43:44;3.80;;;3.47;;
75916;SDS011;64595;50.148;14.334;2023-04-15T10:46:10;3.70;;;2.75;;
75916;SDS011;64595;50.148;14.334;2023-04-15T10:48:37;3.50;;;2.95;;
75916;SDS011;64595;50.148;14.334;2023-04-15T10:51:03;3.25;;;2.90;;
75916;SDS011;64595;50.148;14.334;2023-04-15T10:53:29;3.47;;;3.05;;
75916;SDS011;64595;50.148;14.334;2023-04-15T10:55:56;3.33;;;2.88;;
75916;SDS011;64595;50.148;14.334;2023-04-15T10:58:22;5.03;;;3.50;;
75916;SDS011;64595;50.148;14.334;2023-04-15T11:00:49;3.17;;;2.60;;
75916;SDS011;64595;50.148;14.334;2023-04-15T11:03:15;3.78;;;3.28;;
75916;SDS011;64595;50.148;14.334;2023-04-15T11:05:51;3.92;;;2.97;;
75916;SDS011;64595;50.148;14.334;2023-04-15T11:08:17;3.00;;;2.60;;
75916;SDS011;64595;50.148;14.334;2023-04-15T11:10:52;4.13;;;2.75;;
75916;SDS011;64595;50.148;14.334;2023-04-15T11:13:27;3.30;;;2.47;;
75916;SDS011;64595;50.148;14.334;2023-04-15T11:15:56;4.93;;;3.20;;
75916;SDS011;64595;50.148;14.334;2023-04-15T11:18:26;4.97;;;3.90;;
75916;SDS011;64595;50.148;14.334;2023-04-15T11:20:54;4.28;;;2.95;;
75916;SDS011;64595;50.148;14.334;2023-04-15T11:23:26;5.07;;;3.03;;
75916;SDS011;64595;50.148;14.334;2023-04-15T11:25:53;3.20;;;2.63;;
75916;SDS011;64595;50.148;14.334;2023-04-15T11:28:19;3.45;;;2.85;;
75916;SDS011;64595;50.148;14.334;2023-04-15T11:30:44;3.95;;;3.15;;
75916;SDS011;64595;50.148;14.334;2023-04-15T11:33:11;4.35;;;3.33;;
75916;SDS011;64595;50.148;14.334;2023-04-15T11:35:37;6.03;;;3.13;;
75916;SDS011;64595;50.148;14.334;2023-04-15T11:38:04;3.70;;;2.85;;
75916;SDS011;64595;50.148;14.334;2023-04-15T11:40:30;4.88;;;3.40;;
75916;SDS011;64595;50.148;14.334;2023-04-15T11:43:05;3.72;;;2.50;;
75916;SDS011;64595;50.148;14.334;2023-04-15T11:45:31;3.60;;;3.00;;
75916;SDS011;64595;50.148;14.334;2023-04-15T11:48:03;4.35;;;3.00;;
75916;SDS011;64595;50.148;14.334;2023-04-15T11:50:37;4.10;;;3.13;;
75916;SDS011;64595;50.148;14.334;2023-04-15T11:53:04;4.88;;;3.50;;
75916;SDS011;64595;50.148;14.334;2023-04-15T11:55:31;4.32;;;3.38;;
75916;SDS011;64595;50.148;14.334;2023-04-15T11:58:07;4.25;;;3.33;;
75916;SDS011;64595;50.148;14.334;2023-04-15T12:00:34;4.38;;;3.05;;
75916;SDS011;64595;50.148;14.334;2023-04-15T12:03:10;4.47;;;3.42;;
75916;SDS011;64595;50.148;14.334;2023-04-15T12:05:36;5.28;;;3.50;;
75916;SDS011;64595;50.148;14.334;2023-04-15T12:11:17;4.03;;;2.90;;
75916;SDS011;64595;50.148;14.334;2023-04-15T12:13:43;3.58;;;2.90;;
75916;SDS011;64595;50.148;14.334;2023-04-15T12:16:08;4.90;;;3.35;;
75916;SDS011;64595;50.148;14.334;2023-04-15T12:18:36;5.00;;;3.78;;
75916;SDS011;64595;50.148;14.334;2023-04-15T12:21:03;4.00;;;3.00;;
75916;SDS011;64595;50.148;14.334;2023-04-15T12:23:35;3.20;;;2.67;;
75916;SDS011;64595;50.148;14.334;2023-04-15T12:26:10;3.80;;;3.03;;
75916;SDS011;64595;50.148;14.334;2023-04-15T12:28:35;4.07;;;3.67;;
75916;SDS011;64595;50.148;14.334;2023-04-15T12:31:05;6.20;;;2.92;;
75916;SDS011;64595;50.148;14.334;2023-04-15T12:33:31;3.78;;;2.60;;
75916;SDS011;64595;50.148;14.334;2023-04-15T12:35:57;4.03;;;3.00;;
75916;SDS011;64595;50.148;14.334;2023-04-15T12:38:22;4.10;;;3.00;;
75916;SDS011;64595;50.148;14.334;2023-04-15T12:40:48;4.00;;;2.80;;
75916;SDS011;64595;50.148;14.334;2023-04-15T12:43:15;4.32;;;3.55;;
75916;SDS011;64595;50.148;14.334;2023-04-15T12:45:40;4.28;;;3.55;;
75916;SDS011;64595;50.148;14.334;2023-04-15T12:48:06;4.43;;;2.92;;
75916;SDS011;64595;50.148;14.334;2023-04-15T12:50:32;3.90;;;3.20;;
75916;SDS011;64595;50.148;14.334;2023-04-15T12:52:57;4.60;;;3.42;;
75916;SDS011;64595;50.148;14.334;2023-04-15T12:55:23;3.55;;;2.72;;
75916;SDS011;64595;50.148;14.334;2023-04-15T12:57:48;3.47;;;2.83;;
75916;SDS011;64595;50.148;14.334;2023-04-15T13:00:15;3.45;;;2.47;;
75916;SDS011;64595;50.148;14.334;2023-04-15T13:02:42;3.97;;;3.00;;
75916;SDS011;64595;50.148;14.334;2023-04-15T13:05:08;4.45;;;2.92;;
75916;SDS011;64595;50.148;14.334;2023-04-15T13:07:34;5.25;;;2.90;;
75916;SDS011;64595;50.148;14.334;2023-04-15T13:09:59;3.33;;;2.63;;
75916;SDS011;64595;50.148;14.334;2023-04-15T13:12:25;4.43;;;2.88;;
75916;SDS011;64595;50.148;14.334;2023-04-15T13:14:51;6.32;;;3.95;;
75916;SDS011;64595;50.148;14.334;2023-04-15T13:17:17;7.55;;;4.68;;
75916;SDS011;64595;50.148;14.334;2023-04-15T13:19:43;4.22;;;3.65;;
75916;SDS011;64595;50.148;14.334;2023-04-15T13:22:08;3.92;;;3.13;;
75916;SDS011;64595;50.148;14.334;2023-04-15T13:24:34;3.05;;;2.67;;
75916;SDS011;64595;50.148;14.334;2023-04-15T13:26:59;4.57;;;3.40;;
75916;SDS011;64595;50.148;14.334;2023-04-15T13:29:25;4.47;;;3.20;;
75916;SDS011;64595;50.148;14.334;2023-04-15T13:31:50;4.05;;;3.60;;
75916;SDS011;64595;50.148;14.334;2023-04-15T13:34:17;4.80;;;3.80;;
75916;SDS011;64595;50.148;14.334;2023-04-15T13:36:42;5.15;;;3.20;;
75916;SDS011;64595;50.148;14.334;2023-04-15T13:39:08;5.50;;;4.13;;
75916;SDS011;64595;50.148;14.334;2023-04-15T13:41:33;4.18;;;3.58;;
75916;SDS011;64595;50.148;14.334;2023-04-15T13:43:59;6.03;;;3.53;;
75916;SDS011;64595;50.148;14.334;2023-04-15T13:46:24;6.03;;;4.07;;
75916;SDS011;64595;50.148;14.334;2023-04-15T13:48:50;5.28;;;3.70;;
75916;SDS011;64595;50.148;14.334;2023-04-15T13:51:17;7.63;;;4.90;;
75916;SDS011;64595;50.148;14.334;2023-04-15T13:53:42;6.50;;;4.20;;
75916;SDS011;64595;50.148;14.334;2023-04-15T13:56:08;4.30;;;3.45;;
75916;SDS011;64595;50.148;14.334;2023-04-15T13:58:33;6.22;;;3.92;;
75916;SDS011;64595;50.148;14.334;2023-04-15T14:00:59;6.10;;;3.75;;
75916;SDS011;64595;50.148;14.334;2023-04-15T14:03:24;5.60;;;3.92;;
75916;SDS011;64595;50.148;14.334;2023-04-15T14:05:50;44.10;;;16.92;;
75916;SDS011;64595;50.148;14.334;2023-04-15T14:08:17;10.25;;;5.30;;
75916;SDS011;64595;50.148;14.334;2023-04-15T14:10:42;5.18;;;3.45;;
75916;SDS011;64595;50.148;14.334;2023-04-15T14:13:08;3.35;;;3.05;;
75916;SDS011;64595;50.148;14.334;2023-04-15T14:15:33;3.08;;;2.65;;
75916;SDS011;64595;50.148;14.334;2023-04-15T14:17:59;4.28;;;2.83;;
75916;SDS011;64595;50.148;14.334;2023-04-15T14:20:24;3.90;;;2.80;;
75916;SDS011;64595;50.148;14.334;2023-04-15T14:22:50;4.63;;;3.03;;
75916;SDS011;64595;50.148;14.334;2023-04-15T14:25:17;3.58;;;2.97;;
75916;SDS011;64595;50.148;14.334;2023-04-15T14:27:42;6.22;;;4.05;;
75916;SDS011;64595;50.148;14.334;2023-04-15T14:30:08;4.88;;;3.90;;
75916;SDS011;64595;50.148;14.334;2023-04-15T14:32:34;5.43;;;2.70;;